Time;durP1;ratioP1;P1;durP2;ratioP2;P2;SDS_P1;SDS_P2;PMS_P1;PMS_P2;Temp;Humidity;BMP_temperature;BMP_pressure;BME280_temperature;BME280_humidity;BME280_pressure;Samples;Min_cycle;Max_cycle;Signal;HPM_P1;HPM_P2
2021/12/09 00:01:31;;;;;;;18.27;8.50;;;1.60;99.90;;;;;;5022506;28;20093;-64
2021/12/09 00:04:02;;;;;;;17.00;8.18;;;1.60;99.90;;;;;;5024494;28;20096;-65
2021/12/09 00:06:30;;;;;;;17.92;7.85;;;1.60;99.90;;;;;;5021988;28;20073;-65
2021/12/09 00:08:59;;;;;;;15.85;8.50;;;1.60;99.90;;;;;;5021930;28;20060;-65
2021/12/09 00:11:28;;;;;;;16.83;8.38;;;1.60;99.90;;;;;;5021744;28;20442;-65
2021/12/09 00:13:54;;;;;;;17.88;8.82;;;1.60;99.90;;;;;;5022088;28;20054;-65
2021/12/09 00:16:20;;;;;;;17.63;8.40;;;1.70;99.90;;;;;;5001958;28;20042;-65
2021/12/09 00:18:45;;;;;;;16.07;9.20;;;1.70;99.90;;;;;;5023260;28;20053;-65
2021/12/09 00:21:12;;;;;;;15.23;8.40;;;1.70;99.90;;;;;;5021110;28;20034;-65
2021/12/09 00:23:38;;;;;;;18.50;9.13;;;1.60;99.90;;;;;;5023513;28;20461;-65
2021/12/09 00:26:04;;;;;;;19.55;10.07;;;1.60;99.90;;;;;;5021983;28;20079;-65
2021/12/09 00:28:29;;;;;;;17.33;8.85;;;1.60;99.90;;;;;;5023293;28;20061;-65
2021/12/09 00:30:55;;;;;;;17.70;8.63;;;1.60;99.90;;;;;;5036760;28;20072;-65
2021/12/09 00:33:21;;;;;;;17.58;9.25;;;1.60;99.90;;;;;;5023040;28;20062;-65
2021/12/09 00:35:56;;;;;;;16.07;8.70;;;1.60;99.90;;;;;;5014112;28;20068;-64
2021/12/09 00:38:34;;;;;;;19.08;9.32;;;1.60;99.90;;;;;;5021842;28;20046;-65
2021/12/09 00:41:07;;;;;;;21.08;8.57;;;1.60;99.90;;;;;;5016972;28;20085;-65
2021/12/09 00:43:33;;;;;;;20.60;8.48;;;1.60;99.90;;;;;;5019970;28;20042;-65
2021/12/09 00:45:59;;;;;;;15.32;8.20;;;1.60;99.90;;;;;;5022914;28;20065;-65
2021/12/09 00:48:26;;;;;;;17.13;8.13;;;1.60;99.90;;;;;;5022383;28;20088;-66
2021/12/09 00:50:54;;;;;;;13.38;8.18;;;1.50;99.90;;;;;;5021735;28;20053;-64
2021/12/09 00:53:20;;;;;;;14.18;9.02;;;1.50;99.90;;;;;;5022881;28;20050;-64
2021/12/09 00:55:46;;;;;;;17.23;8.77;;;1.50;99.90;;;;;;5023082;28;20157;-64
2021/12/09 00:58:12;;;;;;;15.25;8.38;;;1.50;99.90;;;;;;5021925;28;20038;-65
2021/12/09 01:00:38;;;;;;;14.60;8.77;;;1.50;99.90;;;;;;5022300;28;20048;-65
2021/12/09 01:03:04;;;;;;;13.00;8.23;;;1.50;99.90;;;;;;5022875;28;20136;-65
2021/12/09 01:05:35;;;;;;;14.07;9.07;;;1.40;99.90;;;;;;5022686;28;20101;-64
2021/12/09 01:08:01;;;;;;;14.00;8.25;;;1.40;99.90;;;;;;5021508;28;20112;-64
2021/12/09 01:10:28;;;;;;;20.50;9.53;;;1.40;99.90;;;;;;5020462;28;20473;-64
2021/12/09 01:12:54;;;;;;;19.10;9.13;;;1.40;99.90;;;;;;5021254;28;20041;-65
2021/12/09 01:15:20;;;;;;;16.95;8.77;;;1.40;99.90;;;;;;5022648;28;20045;-65
2021/12/09 01:17:47;;;;;;;18.27;9.57;;;1.40;99.90;;;;;;5022571;28;20057;-65
2021/12/09 01:20:15;;;;;;;18.85;9.10;;;1.30;99.90;;;;;;5021294;28;20057;-65
2021/12/09 01:22:43;;;;;;;18.02;9.52;;;1.30;99.90;;;;;;5022306;28;20041;-64
2021/12/09 01:25:11;;;;;;;16.63;9.30;;;1.30;99.90;;;;;;5020309;28;20056;-65
2021/12/09 01:27:41;;;;;;;19.92;9.73;;;1.30;99.90;;;;;;5020411;28;20037;-65
2021/12/09 01:30:14;;;;;;;18.98;9.38;;;1.20;99.90;;;;;;5022609;28;20050;-65
2021/12/09 01:32:49;;;;;;;22.95;10.40;;;1.20;99.90;;;;;;5017317;28;20045;-64
2021/12/09 01:35:27;;;;;;;15.68;9.30;;;1.20;99.90;;;;;;5021078;28;20050;-65
2021/12/09 01:37:59;;;;;;;17.40;9.52;;;1.20;99.90;;;;;;5022155;28;20054;-65
2021/12/09 01:40:27;;;;;;;18.73;9.13;;;1.10;99.90;;;;;;5021257;28;20160;-65
2021/12/09 01:42:53;;;;;;;18.50;9.02;;;1.10;99.90;;;;;;5012416;28;20064;-65
2021/12/09 01:45:19;;;;;;;16.58;9.75;;;1.10;99.90;;;;;;5021943;28;20042;-65
2021/12/09 01:47:45;;;;;;;20.77;9.35;;;1.10;99.90;;;;;;5020947;28;20195;-64
2021/12/09 01:50:11;;;;;;;21.17;9.20;;;1.00;99.90;;;;;;5022695;28;20045;-65
2021/12/09 01:52:37;;;;;;;19.80;10.18;;;1.10;99.90;;;;;;5034874;28;20068;-65
2021/12/09 01:55:05;;;;;;;22.50;10.70;;;1.00;99.90;;;;;;5022688;28;20482;-65
2021/12/09 01:57:31;;;;;;;21.73;10.88;;;1.00;99.90;;;;;;5020367;28;20288;-65
2021/12/09 01:59:56;;;;;;;22.45;11.52;;;1.00;99.90;;;;;;5022579;28;20057;-64
2021/12/09 02:02:22;;;;;;;19.50;11.37;;;1.00;99.90;;;;;;5021094;28;20057;-65
2021/12/09 02:04:48;;;;;;;20.57;12.40;;;1.00;99.90;;;;;;5022277;28;20296;-64
2021/12/09 02:07:14;;;;;;;23.98;11.57;;;1.00;99.90;;;;;;5020763;28;20054;-64
2021/12/09 02:09:39;;;;;;;20.83;11.67;;;1.00;99.90;;;;;;5022805;28;20113;-65
2021/12/09 02:12:08;;;;;;;23.53;11.87;;;1.00;99.90;;;;;;5025852;28;20038;-64
2021/12/09 02:14:34;;;;;;;26.30;12.63;;;1.00;99.90;;;;;;5008223;28;20100;-64
2021/12/09 02:17:00;;;;;;;24.15;12.80;;;1.00;99.90;;;;;;5007099;28;20171;-64
2021/12/09 02:19:26;;;;;;;27.25;13.13;;;1.00;99.90;;;;;;5024795;28;20053;-64
2021/12/09 02:21:51;;;;;;;26.42;13.70;;;1.00;99.90;;;;;;5024421;28;20057;-64
2021/12/09 02:24:18;;;;;;;24.17;13.00;;;1.00;99.90;;;;;;5024345;28;20107;-64
2021/12/09 02:26:49;;;;;;;30.10;13.73;;;1.10;99.90;;;;;;5023864;28;20090;-65
2021/12/09 02:29:15;;;;;;;26.45;14.48;;;1.10;99.90;;;;;;5025650;28;20452;-65
2021/12/09 02:31:43;;;;;;;20.67;13.15;;;1.10;99.90;;;;;;5025406;28;20025;-65
2021/12/09 02:34:10;;;;;;;28.13;13.75;;;1.20;99.90;;;;;;5025780;28;20041;-64
2021/12/09 02:36:39;;;;;;;24.90;13.32;;;1.20;99.90;;;;;;5024966;28;20076;-65
2021/12/09 02:39:09;;;;;;;22.42;13.57;;;1.10;99.90;;;;;;5026051;28;20066;-64
2021/12/09 02:41:36;;;;;;;24.63;13.27;;;1.20;99.90;;;;;;5023491;28;20049;-64
2021/12/09 02:44:05;;;;;;;28.20;14.40;;;1.10;99.90;;;;;;5024274;28;20100;-64
2021/12/09 02:46:36;;;;;;;29.55;13.95;;;1.10;99.90;;;;;;5023630;28;20052;-65
2021/12/09 02:49:04;;;;;;;25.40;12.70;;;1.10;99.90;;;;;;5021528;28;20073;-65
2021/12/09 02:51:30;;;;;;;25.10;13.05;;;1.10;99.90;;;;;;5041060;28;20068;-65
2021/12/09 02:53:56;;;;;;;21.80;12.47;;;1.10;99.90;;;;;;5018186;28;20046;-65
2021/12/09 02:56:21;;;;;;;25.35;13.32;;;1.10;99.90;;;;;;5012012;28;20128;-64
2021/12/09 02:58:47;;;;;;;23.83;14.17;;;1.10;99.90;;;;;;5007044;28;20049;-64
2021/12/09 03:01:16;;;;;;;26.25;12.85;;;1.00;99.90;;;;;;5040160;28;20057;-65
2021/12/09 03:03:50;;;;;;;25.13;13.57;;;1.00;99.90;;;;;;5023779;28;20050;-64
2021/12/09 03:06:22;;;;;;;22.35;12.77;;;1.00;99.90;;;;;;5023437;28;20462;-64
2021/12/09 03:08:49;;;;;;;25.17;12.82;;;1.00;99.90;;;;;;5022549;28;20057;-64
2021/12/09 03:11:19;;;;;;;23.70;12.82;;;1.00;99.90;;;;;;5024746;28;20102;-65
2021/12/09 03:13:46;;;;;;;28.67;12.68;;;1.00;99.90;;;;;;5023573;28;20058;-65
2021/12/09 03:16:12;;;;;;;24.77;12.73;;;0.90;99.90;;;;;;5020256;28;20046;-64
2021/12/09 03:18:51;;;;;;;19.75;11.73;;;0.90;99.90;;;;;;5017958;28;20050;-64
2021/12/09 03:21:22;;;;;;;23.20;12.98;;;0.80;99.90;;;;;;5023385;28;20112;-65
2021/12/09 03:23:48;;;;;;;25.30;12.45;;;0.80;99.90;;;;;;5023058;28;20066;-65
2021/12/09 03:26:16;;;;;;;19.80;12.68;;;0.80;99.90;;;;;;5044697;28;20072;-65
2021/12/09 03:28:42;;;;;;;22.63;12.55;;;0.80;99.90;;;;;;5021336;28;20078;-64
2021/12/09 03:31:08;;;;;;;25.50;12.90;;;0.70;99.90;;;;;;5022832;28;20073;-64
2021/12/09 03:33:34;;;;;;;25.83;13.43;;;0.70;99.90;;;;;;5017013;28;20049;-64
2021/12/09 03:36:03;;;;;;;21.67;12.27;;;0.70;99.90;;;;;;5022030;28;20054;-64
2021/12/09 03:38:30;;;;;;;24.88;13.82;;;0.70;99.90;;;;;;5022502;28;20058;-64
2021/12/09 03:40:56;;;;;;;22.83;13.43;;;0.70;99.90;;;;;;5022979;28;20077;-65
2021/12/09 03:43:22;;;;;;;23.95;13.02;;;0.60;99.90;;;;;;5022900;28;20049;-65
2021/12/09 03:45:50;;;;;;;26.20;14.15;;;0.60;99.90;;;;;;5022968;28;20119;-64
2021/12/09 03:48:17;;;;;;;21.17;13.75;;;0.60;99.90;;;;;;5023723;28;20054;-65
2021/12/09 03:50:45;;;;;;;24.58;14.38;;;0.60;99.90;;;;;;5022467;28;20066;-64
2021/12/09 03:53:12;;;;;;;26.05;14.65;;;0.60;99.90;;;;;;5023896;28;20141;-64
2021/12/09 03:55:37;;;;;;;27.55;14.88;;;0.70;99.90;;;;;;5022643;28;20125;-64
2021/12/09 03:58:03;;;;;;;25.70;15.75;;;0.60;99.90;;;;;;5022571;28;20065;-64
2021/12/09 04:00:30;;;;;;;25.53;14.43;;;0.70;99.90;;;;;;5009526;28;20216;-65
2021/12/09 04:02:56;;;;;;;31.15;15.98;;;0.70;99.90;;;;;;5023346;28;20124;-65
2021/12/09 04:05:24;;;;;;;27.95;14.32;;;0.70;99.90;;;;;;5024197;28;20045;-65
2021/12/09 04:07:50;;;;;;;32.10;16.48;;;0.70;99.90;;;;;;5023352;28;20058;-65
2021/12/09 04:10:15;;;;;;;24.30;15.35;;;0.70;99.90;;;;;;5023945;28;20693;-64
2021/12/09 04:12:41;;;;;;;25.27;13.57;;;0.70;99.90;;;;;;5022717;28;20085;-64
2021/12/09 04:15:07;;;;;;;24.80;13.93;;;0.70;99.90;;;;;;5023720;28;20161;-64
2021/12/09 04:17:34;;;;;;;26.45;15.10;;;0.70;99.90;;;;;;5018900;28;20077;-64
2021/12/09 04:20:00;;;;;;;24.20;14.43;;;0.70;99.90;;;;;;5002803;28;20061;-64
2021/12/09 04:22:26;;;;;;;22.45;14.23;;;0.70;99.90;;;;;;5019204;28;20085;-65
2021/12/09 04:24:53;;;;;;;26.58;15.07;;;0.70;99.90;;;;;;5023886;28;20042;-65
2021/12/09 04:27:20;;;;;;;28.00;14.52;;;0.70;99.90;;;;;;5022005;28;20061;-65
2021/12/09 04:29:45;;;;;;;;;;;0.60;99.90;;;;;;5023611;28;20076;-65
2021/12/09 04:32:11;;;;;;;27.40;14.48;;;0.60;99.90;;;;;;5023233;28;19925;-65
2021/12/09 04:34:37;;;;;;;29.97;14.33;;;0.60;99.90;;;;;;5023242;28;20038;-65
2021/12/09 04:37:04;;;;;;;28.67;14.77;;;0.60;99.90;;;;;;5018329;28;20043;-65
2021/12/09 04:39:29;;;;;;;;;;;0.50;99.90;;;;;;5019750;28;20094;-65
2021/12/09 04:41:55;;;;;;;26.55;13.82;;;0.50;99.90;;;;;;5021762;28;19968;-64
2021/12/09 04:44:22;;;;;;;23.63;13.90;;;0.50;99.90;;;;;;5007125;28;20224;-64
2021/12/09 04:46:48;;;;;;;29.95;15.15;;;0.50;99.90;;;;;;5011788;28;20050;-63
2021/12/09 04:49:14;;;;;;;25.45;14.60;;;0.50;99.90;;;;;;5022580;28;20045;-63
2021/12/09 04:51:39;;;;;;;24.70;14.63;;;0.50;99.90;;;;;;5021691;28;20095;-64
2021/12/09 04:54:06;;;;;;;28.43;14.23;;;0.50;99.90;;;;;;5021822;28;20073;-64
2021/12/09 04:56:33;;;;;;;23.08;13.73;;;0.50;99.90;;;;;;5021814;28;20042;-65
2021/12/09 04:58:59;;;;;;;29.17;14.75;;;0.50;99.90;;;;;;5022602;28;20057;-64
2021/12/09 05:01:25;;;;;;;27.17;14.52;;;0.40;99.90;;;;;;5021156;28;20072;-64
2021/12/09 05:03:51;;;;;;;24.52;13.32;;;0.40;99.90;;;;;;5022597;28;20038;-63
2021/12/09 05:06:17;;;;;;;27.77;14.32;;;0.40;99.90;;;;;;5020986;28;20045;-63
2021/12/09 05:08:48;;;;;;;25.98;14.02;;;0.40;99.90;;;;;;5037605;28;20081;-63
2021/12/09 05:11:31;;;;;;;24.92;14.63;;;0.40;99.90;;;;;;5020958;28;20057;-63
2021/12/09 05:13:58;;;;;;;27.88;14.90;;;0.40;99.90;;;;;;5021094;28;20073;-63
2021/12/09 05:16:24;;;;;;;28.73;15.35;;;0.30;99.90;;;;;;5037690;28;20241;-64
2021/12/09 05:18:57;;;;;;;35.75;16.13;;;0.30;99.90;;;;;;5020911;28;20061;-64
2021/12/09 05:21:23;;;;;;;30.73;15.13;;;0.30;99.90;;;;;;5020874;28;20045;-63
2021/12/09 05:23:49;;;;;;;32.88;15.35;;;0.40;99.90;;;;;;5022871;28;20053;-63
2021/12/09 05:26:17;;;;;;;28.30;14.93;;;0.40;99.90;;;;;;5018750;28;20041;-64
2021/12/09 05:28:44;;;;;;;28.25;15.88;;;0.40;99.90;;;;;;5022448;28;20046;-63
2021/12/09 05:33:59;;;;;;;29.20;15.32;;;0.30;99.90;;;;;;5021892;28;19960;-64
2021/12/09 05:36:24;;;;;;;33.60;14.93;;;0.30;99.90;;;;;;5016831;28;20128;-64
2021/12/09 05:38:50;;;;;;;32.00;16.00;;;0.30;99.90;;;;;;5022025;28;20391;-63
2021/12/09 05:41:16;;;;;;;28.20;15.07;;;0.30;99.90;;;;;;5020756;28;20156;-64
2021/12/09 05:43:41;;;;;;;28.80;15.87;;;0.30;99.90;;;;;;5021689;28;20050;-64
2021/12/09 05:46:08;;;;;;;29.37;16.10;;;0.30;99.90;;;;;;5026467;28;21476;-63
2021/12/09 05:48:36;;;;;;;29.67;16.48;;;0.30;99.90;;;;;;5023652;28;20103;-63
2021/12/09 05:51:02;;;;;;;24.77;15.88;;;0.30;99.90;;;;;;5025040;28;20133;-64
2021/12/09 05:53:27;;;;;;;42.17;16.95;;;0.30;99.90;;;;;;5024929;28;20058;-63
2021/12/09 05:55:53;;;;;;;29.43;15.50;;;0.20;99.90;;;;;;5024701;28;20110;-63
2021/12/09 05:58:22;;;;;;;28.35;15.32;;;0.30;99.90;;;;;;5015872;28;20050;-63
2021/12/09 06:00:49;;;;;;;27.85;15.63;;;0.20;99.90;;;;;;5008085;28;20065;-63
2021/12/09 06:03:15;;;;;;;31.95;14.77;;;0.20;99.90;;;;;;5006663;28;20077;-63
2021/12/09 06:05:41;;;;;;;27.37;15.40;;;0.20;99.90;;;;;;5023685;28;20042;-64
2021/12/09 06:08:06;;;;;;;29.70;16.23;;;0.20;99.90;;;;;;5024090;28;20068;-63
2021/12/09 06:10:34;;;;;;;33.10;15.50;;;0.20;99.90;;;;;;5024755;28;20042;-63
2021/12/09 06:13:00;;;;;;;30.83;16.13;;;0.20;99.90;;;;;;5024699;28;20049;-63
2021/12/09 06:15:26;;;;;;;31.02;15.95;;;0.20;99.90;;;;;;5025038;28;20085;-64
2021/12/09 06:17:52;;;;;;;27.50;14.80;;;0.20;99.90;;;;;;5013811;28;20046;-64
2021/12/09 06:20:18;;;;;;;28.47;15.83;;;0.10;99.90;;;;;;5011489;28;20106;-63
2021/12/09 06:22:43;;;;;;;30.30;15.90;;;0.10;99.90;;;;;;5022864;28;20095;-63
2021/12/09 06:25:16;;;;;;;33.00;16.10;;;0.10;99.90;;;;;;5025412;28;20076;-64
2021/12/09 06:27:43;;;;;;;27.60;15.25;;;0.20;99.90;;;;;;5023993;28;20033;-64
2021/12/09 06:30:09;;;;;;;28.77;15.90;;;0.10;99.90;;;;;;5024301;28;20041;-63
2021/12/09 06:32:34;;;;;;;41.22;16.77;;;0.10;99.90;;;;;;5023246;28;20053;-63
2021/12/09 06:35:00;;;;;;;35.90;16.07;;;0.10;99.90;;;;;;5024043;28;20049;-64
2021/12/09 06:37:26;;;;;;;29.47;16.20;;;0.10;99.90;;;;;;5023509;28;20060;-64
2021/12/09 06:39:51;;;;;;;28.27;15.33;;;0.00;99.90;;;;;;5023916;28;20034;-64
2021/12/09 06:42:17;;;;;;;35.70;17.60;;;0.00;99.90;;;;;;5023650;28;20060;-63
2021/12/09 06:44:44;;;;;;;32.93;15.10;;;0.00;99.90;;;;;;5023861;28;20128;-63
2021/12/09 06:47:10;;;;;;;25.17;14.73;;;0.00;99.90;;;;;;5023549;28;20045;-64
2021/12/09 06:49:36;;;;;;;34.45;17.05;;;0.00;99.90;;;;;;5021508;28;20058;-64
2021/12/09 06:52:02;;;;;;;34.72;17.10;;;0.00;99.90;;;;;;5023695;28;20098;-63
2021/12/09 06:54:27;;;;;;;28.20;14.68;;;0.00;99.90;;;;;;5024969;28;20064;-63
2021/12/09 06:56:53;;;;;;;27.17;16.17;;;0.00;99.90;;;;;;5038499;28;20136;-63
2021/12/09 06:59:19;;;;;;;25.30;14.60;;;0.00;99.90;;;;;;5025045;28;20053;-64
2021/12/09 07:01:44;;;;;;;35.10;15.60;;;0.00;99.90;;;;;;5025167;28;20046;-64
2021/12/09 07:04:10;;;;;;;31.97;15.70;;;-0.10;99.90;;;;;;5024960;28;20316;-63
2021/12/09 07:06:37;;;;;;;29.83;16.10;;;-0.10;99.90;;;;;;5024892;28;20050;-63
2021/12/09 07:09:04;;;;;;;32.55;16.10;;;-0.10;99.90;;;;;;5023315;28;20045;-63
2021/12/09 07:11:31;;;;;;;38.28;17.35;;;-0.10;99.90;;;;;;5021416;28;20165;-63
2021/12/09 07:13:57;;;;;;;25.25;15.45;;;-0.10;99.90;;;;;;5024467;28;20164;-58
2021/12/09 07:16:23;;;;;;;31.38;16.55;;;-0.10;99.90;;;;;;5018813;28;20038;-62
2021/12/09 07:18:49;;;;;;;32.63;17.58;;;-0.10;99.90;;;;;;5021543;28;20042;-63
2021/12/09 07:21:15;;;;;;;30.38;16.42;;;-0.10;99.90;;;;;;5020976;28;20065;-61
2021/12/09 07:23:41;;;;;;;37.20;15.80;;;-0.10;99.90;;;;;;5021928;28;20057;-65
2021/12/09 07:26:07;;;;;;;28.00;16.10;;;-0.10;99.90;;;;;;5023749;28;20136;-65
2021/12/09 07:28:32;;;;;;;28.03;16.70;;;-0.10;99.90;;;;;;5008797;28;20061;-64
2021/12/09 07:30:59;;;;;;;32.27;17.13;;;-0.10;99.90;;;;;;5021579;28;20057;-62
2021/12/09 07:33:25;;;;;;;27.17;16.17;;;-0.10;99.90;;;;;;5023623;28;20335;-60
2021/12/09 07:35:50;;;;;;;32.13;16.47;;;-0.10;99.90;;;;;;5022883;28;20049;-65
2021/12/09 07:38:16;;;;;;;35.75;17.98;;;-0.10;99.90;;;;;;5022498;28;20152;-64
2021/12/09 07:40:42;;;;;;;31.57;16.73;;;-0.10;99.90;;;;;;5022357;28;20148;-64
2021/12/09 07:43:08;;;;;;;31.48;17.42;;;-0.10;99.90;;;;;;5019843;28;20109;-63
2021/12/09 07:45:33;;;;;;;30.33;16.23;;;-0.10;99.90;;;;;;5003348;28;20046;-63
2021/12/09 07:47:59;;;;;;;31.43;16.40;;;-0.10;99.90;;;;;;5008392;28;20339;-64
2021/12/09 07:50:28;;;;;;;33.22;17.48;;;-0.10;99.90;;;;;;5021682;28;20119;-66
2021/12/09 07:52:55;;;;;;;32.35;16.98;;;-0.10;99.90;;;;;;5021126;28;20053;-67
2021/12/09 07:55:22;;;;;;;26.35;16.50;;;-0.10;99.90;;;;;;5022694;28;20037;-66
2021/12/09 07:57:49;;;;;;;31.85;17.90;;;-0.10;99.90;;;;;;5023703;28;20041;-66
2021/12/09 08:00:19;;;;;;;34.63;17.63;;;0.00;99.90;;;;;;5008594;28;20464;-66
2021/12/09 08:02:46;;;;;;;30.77;17.05;;;0.00;99.90;;;;;;5017813;28;20114;-64
2021/12/09 08:05:13;;;;;;;33.25;17.92;;;0.00;99.90;;;;;;5021669;28;20053;-65
2021/12/09 08:07:41;;;;;;;30.60;17.42;;;0.00;99.90;;;;;;5036365;28;20501;-65
2021/12/09 08:10:09;;;;;;;36.42;17.52;;;0.00;99.90;;;;;;5022884;28;20145;-65
2021/12/09 08:12:35;;;;;;;36.38;17.85;;;0.00;99.90;;;;;;5021015;28;20054;-63
2021/12/09 08:15:01;;;;;;;35.97;17.42;;;0.00;99.90;;;;;;5021403;28;20041;-67
2021/12/09 08:20:13;;;;;;;31.17;17.77;;;0.00;99.90;;;;;;5022457;28;20497;-64
2021/12/09 08:22:40;;;;;;;32.92;18.02;;;0.00;99.90;;;;;;5020206;28;20045;-66
2021/12/09 08:25:07;;;;;;;;;;;0.10;99.90;;;;;;5021458;28;20060;-64
2021/12/09 08:27:34;;;;;;;40.35;18.48;;;0.00;99.90;;;;;;5020413;28;19952;-68
2021/12/09 08:30:05;;;;;;;38.00;18.63;;;0.10;99.90;;;;;;5021969;28;20050;-64
2021/12/09 08:32:31;;;;;;;35.78;16.63;;;0.10;99.90;;;;;;5020406;28;20065;-65
2021/12/09 08:34:58;;;;;;;38.20;18.60;;;0.10;99.90;;;;;;5023175;28;20125;-68
2021/12/09 08:37:24;;;;;;;35.30;17.98;;;0.20;99.90;;;;;;5021012;28;20053;-71
2021/12/09 08:39:49;;;;;;;34.67;17.75;;;0.10;99.90;;;;;;5021203;28;20049;-67
2021/12/09 08:42:15;;;;;;;35.40;18.77;;;0.20;99.90;;;;;;5038208;28;20077;-68
2021/12/09 08:44:42;;;;;;;38.78;19.17;;;0.20;99.90;;;;;;5020032;28;20293;-67
2021/12/09 08:47:08;;;;;;;32.80;19.13;;;0.20;99.90;;;;;;5022042;28;20046;-68
2021/12/09 08:49:34;;;;;;;35.72;18.02;;;0.20;99.90;;;;;;5021765;28;20050;-67
2021/12/09 08:52:01;;;;;;;31.25;18.65;;;0.20;99.90;;;;;;5020679;28;20033;-68
2021/12/09 08:54:26;;;;;;;36.78;18.13;;;0.30;99.90;;;;;;5020298;28;20053;-67
2021/12/09 08:56:52;;;;;;;38.03;18.43;;;0.30;99.90;;;;;;5022403;28;20108;-67
2021/12/09 08:59:21;;;;;;;31.83;17.45;;;0.30;99.90;;;;;;5021866;28;20034;-68
2021/12/09 09:01:47;;;;;;;39.00;17.20;;;0.30;99.90;;;;;;5020112;28;20104;-69
2021/12/09 09:04:13;;;;;;;31.45;17.00;;;0.40;99.90;;;;;;5021851;28;20041;-68
2021/12/09 09:06:53;;;;;;;35.77;16.97;;;0.40;99.90;;;;;;5036709;28;20077;-70
2021/12/09 09:09:19;;;;;;;37.22;18.10;;;0.40;99.90;;;;;;5018966;28;20045;-69
2021/12/09 09:11:45;;;;;;;30.17;17.13;;;0.40;99.90;;;;;;5021349;28;20053;-69
2021/12/09 09:14:11;;;;;;;36.27;17.33;;;0.40;99.90;;;;;;5036929;28;20076;-70
2021/12/09 09:16:38;;;;;;;37.53;17.23;;;0.40;99.90;;;;;;5003203;28;20093;-69
2021/12/09 09:19:04;;;;;;;40.17;18.58;;;0.50;99.90;;;;;;5020983;28;20040;-69
2021/12/09 09:21:31;;;;;;;28.38;17.35;;;0.60;99.90;;;;;;5021416;28;20038;-70
2021/12/09 09:23:56;;;;;;;;;;;0.60;99.90;;;;;;5022666;28;20056;-68
2021/12/09 09:26:22;;;;;;;28.20;16.50;;;0.60;99.90;;;;;;5020589;28;20385;-65
2021/12/09 09:28:48;;;;;;;27.17;15.77;;;0.60;99.90;;;;;;5021766;28;20057;-68
2021/12/09 09:31:14;;;;;;;34.22;17.17;;;0.70;99.90;;;;;;5021698;28;20505;-69
2021/12/09 09:33:41;;;;;;;35.75;17.15;;;0.70;99.90;;;;;;5021624;28;20124;-67
2021/12/09 09:36:07;;;;;;;33.97;15.90;;;0.80;99.90;;;;;;5019421;28;20057;-63
2021/12/09 09:38:33;;;;;;;30.65;16.25;;;0.80;99.90;;;;;;5021144;28;20038;-68
2021/12/09 09:41:12;;;;;;;34.38;16.45;;;0.90;99.90;;;;;;5020865;28;20405;-68
2021/12/09 09:46:19;;;;;;;32.55;14.77;;;1.00;99.90;;;;;;5020022;28;20069;-71
2021/12/09 09:48:46;;;;;;;34.95;15.75;;;1.10;99.90;;;;;;5019237;28;20053;-70
2021/12/09 09:51:12;;;;;;;29.20;15.32;;;1.10;99.90;;;;;;5036677;28;20049;-70
2021/12/09 09:53:41;;;;;;;35.30;14.63;;;1.20;99.90;;;;;;5036547;28;20068;-70
2021/12/09 09:56:14;;;;;;;30.77;15.95;;;1.20;99.90;;;;;;5019710;28;20054;-70
2021/12/09 09:58:56;;;;;;;34.80;15.35;;;1.30;99.90;;;;;;5019229;28;20052;-71
2021/12/09 10:01:22;;;;;;;30.25;13.48;;;1.40;99.90;;;;;;5019452;28;20181;-70
2021/12/09 10:03:52;;;;;;;29.58;13.90;;;1.40;99.90;;;;;;5020436;28;20054;-75
2021/12/09 10:06:19;;;;;;;35.40;13.90;;;1.50;99.90;;;;;;5023436;28;20106;-71
2021/12/09 10:08:48;;;;;;;30.58;14.18;;;1.50;99.90;;;;;;5025176;28;20056;-71
2021/12/09 10:11:15;;;;;;;27.40;14.27;;;1.60;99.90;;;;;;5020099;28;20083;-69
2021/12/09 10:13:43;;;;;;;29.50;14.43;;;1.60;99.90;;;;;;5017227;28;20049;-69
2021/12/09 10:16:21;;;;;;;26.00;13.07;;;1.60;99.90;;;;;;5019660;28;20065;-68
2021/12/09 10:18:50;;;;;;;22.77;12.40;;;1.70;99.90;;;;;;5019059;28;20049;-68
2021/12/09 10:21:29;;;;;;;25.08;12.77;;;1.70;99.90;;;;;;5017651;28;20053;-71
2021/12/09 10:24:07;;;;;;;29.35;12.70;;;1.80;99.90;;;;;;5017442;28;20054;-74
2021/12/09 10:26:38;;;;;;;;;;;1.80;99.90;;;;;;5019096;28;20034;-73
2021/12/09 10:29:36;;;;;;;25.95;12.85;;;1.80;99.90;;;;;;5010137;28;19931;-77
2021/12/09 10:32:16;;;;;;;25.17;11.55;;;1.80;99.90;;;;;;5020464;28;20062;-74
2021/12/09 10:34:45;;;;;;;29.17;12.48;;;1.90;99.90;;;;;;5022821;28;20058;-71
2021/12/09 10:37:23;;;;;;;24.50;12.13;;;1.90;99.90;;;;;;5023115;28;20159;-72
2021/12/09 10:40:03;;;;;;;20.02;11.57;;;2.00;99.90;;;;;;5021475;28;20057;-69
2021/12/09 10:42:35;;;;;;;23.50;12.60;;;2.00;99.90;;;;;;5025015;28;20046;-71
2021/12/09 10:45:08;;;;;;;22.42;12.25;;;2.00;99.90;;;;;;5017238;28;20058;-70
2021/12/09 10:47:50;;;;;;;28.23;12.13;;;2.10;99.90;;;;;;5034908;28;20125;-76
2021/12/09 10:56:00;;;;;;;22.65;11.18;;;2.30;99.90;;;;;;4940173;29;20059;-74
2021/12/09 10:58:28;;;;;;;19.40;11.80;;;2.40;99.90;;;;;;4942435;29;20060;-70
2021/12/09 11:00:55;;;;;;;23.73;11.60;;;2.40;99.90;;;;;;4951717;29;20051;-70
2021/12/09 11:03:40;;;;;;;26.50;12.45;;;2.50;99.90;;;;;;4959311;29;20106;-71
2021/12/09 11:06:08;;;;;;;29.73;13.73;;;2.60;99.90;;;;;;4935744;29;20119;-67
2021/12/09 11:08:35;;;;;;;19.35;11.50;;;2.60;99.90;;;;;;4940350;29;20094;-74
2021/12/09 11:11:08;;;;;;;23.30;12.50;;;2.70;99.90;;;;;;4953731;29;20391;-69
2021/12/09 11:13:53;;;;;;;24.70;12.60;;;2.70;99.90;;;;;;4943686;29;20201;-67
2021/12/09 11:16:27;;;;;;;20.10;11.82;;;2.80;99.90;;;;;;4962614;29;20059;-67
2021/12/09 11:19:17;;;;;;;27.48;12.57;;;2.80;99.90;;;;;;4962209;28;20513;-69
2021/12/09 11:21:51;;;;;;;24.38;13.45;;;2.80;99.90;;;;;;4958096;29;20082;-69
2021/12/09 11:24:19;;;;;;;23.02;12.30;;;2.90;99.90;;;;;;4955181;29;20043;-71
2021/12/09 11:26:55;;;;;;;25.63;13.02;;;2.80;99.90;;;;;;4959356;29;20059;-72
2021/12/09 11:29:44;;;;;;;23.38;12.95;;;2.80;99.90;;;;;;4961506;29;20047;-74
2021/12/09 11:32:19;;;;;;;24.73;12.40;;;2.80;99.90;;;;;;4968745;28;20101;-64
2021/12/09 11:39:57;;;;;;;26.67;12.43;;;2.80;99.90;;;;;;4999621;28;20047;-72
2021/12/09 11:42:37;;;;;;;26.23;13.52;;;2.80;99.90;;;;;;4999287;28;20122;-70
2021/12/09 11:45:06;;;;;;;23.55;12.73;;;2.70;99.90;;;;;;5000481;28;20050;-72
2021/12/09 11:47:31;;;;;;;30.02;12.50;;;2.70;99.90;;;;;;5003229;28;20192;-68
2021/12/09 11:49:57;;;;;;;29.60;11.90;;;2.70;99.90;;;;;;5000699;28;20046;-73
2021/12/09 11:52:24;;;;;;;20.77;12.75;;;2.70;99.90;;;;;;5002513;28;20073;-74
2021/12/09 11:55:01;;;;;;;;;;;2.70;99.90;;;;;;5004379;28;20050;-68
2021/12/09 11:57:38;;;;;;;25.55;12.52;;;2.60;99.90;;;;;;5000123;28;19925;-70
2021/12/09 12:06:50;;;;;;;25.80;13.48;;;2.60;99.90;;;;;;4998872;28;20106;-73
2021/12/09 12:12:25;;;;;;;29.30;15.13;;;2.60;99.90;;;;;;4979163;28;20125;-73
2021/12/09 12:14:54;;;;;;;32.45;14.93;;;2.60;99.90;;;;;;4982225;28;20059;-72
2021/12/09 12:28:30;;;;;;;35.22;16.70;;;2.60;99.90;;;;;;4979429;28;20058;-70
2021/12/09 12:34:01;;;;;;;37.65;16.42;;;2.70;99.90;;;;;;4981595;28;20095;-71
2021/12/09 12:43:10;;;;;;;32.25;14.38;;;2.80;99.90;;;;;;4962495;28;20089;-72
2021/12/09 12:45:48;;;;;;;32.67;15.77;;;2.80;99.90;;;;;;4960236;28;20066;-72
2021/12/09 12:57:02;;;;;;;28.30;14.77;;;2.90;99.90;;;;;;4953945;28;20082;-69
2021/12/09 12:59:39;;;;;;;25.70;13.23;;;2.90;99.90;;;;;;4944238;29;20142;-62
2021/12/09 13:02:57;;;;;;;27.25;13.95;;;2.90;99.90;;;;;;4950267;28;20055;-68
2021/12/09 13:07:38;;;;;;;27.05;13.80;;;3.00;99.90;;;;;;4952535;28;20097;-69
2021/12/09 13:13:21;;;;;;;23.52;14.00;;;3.00;99.90;;;;;;4988951;28;20050;-67
2021/12/09 13:16:14;;;;;;;29.50;14.25;;;3.00;99.90;;;;;;4980128;28;20066;-66
2021/12/09 13:18:46;;;;;;;31.65;15.00;;;3.00;99.90;;;;;;4979919;28;20055;-67
2021/12/09 13:21:51;;;;;;;34.53;15.30;;;3.00;99.90;;;;;;4978470;28;20042;-67
2021/12/09 13:24:36;;;;;;;26.02;13.57;;;3.00;99.90;;;;;;4982913;28;20046;-67
2021/12/09 13:30:23;;;;;;;25.25;14.35;;;3.10;99.90;;;;;;4967045;28;20082;-66
2021/12/09 13:38:39;;;;;;;34.40;14.95;;;3.10;99.90;;;;;;4997744;28;20063;-66
2021/12/09 13:47:10;;;;;;;28.35;15.88;;;3.10;99.90;;;;;;5000993;28;20038;-64
2021/12/09 13:49:55;;;;;;;26.58;15.10;;;3.10;99.90;;;;;;4999843;28;20046;-65
2021/12/09 13:55:11;;;;;;;31.50;15.20;;;3.20;99.90;;;;;;5000654;28;20054;-66
2021/12/09 13:57:48;;;;;;;26.15;15.35;;;3.10;99.90;;;;;;4999479;28;20053;-60
2021/12/09 14:00:27;;;;;;;23.27;14.30;;;3.10;99.90;;;;;;4999462;28;20112;-65
2021/12/09 14:02:55;;;;;;;29.48;15.63;;;3.20;99.90;;;;;;4997956;28;20074;-63
2021/12/09 14:05:22;;;;;;;28.98;15.63;;;3.20;99.90;;;;;;5003468;28;20042;-67
2021/12/09 14:07:59;;;;;;;26.25;15.93;;;3.20;99.90;;;;;;5014458;28;20065;-63
2021/12/09 14:10:29;;;;;;;26.60;15.25;;;3.20;99.90;;;;;;5024210;28;20082;-62